Decoded Metar for KBHM (BIRMINGHAM in AL, USA) (IATA:BHM) | Meteo·Mobile Aviation Weather
aviador You're here:

KBHM Decoded Metar

BIRMINGHAM in AL, USA
Report Time2019-04-23 07:53:00
UTC Time2019-04-23 08:04:39
Flight Rules vfr VFR
WindCalm
Visibility9999 m
Phenomena:N/A
Clouds:N/A
Expected CloudBase > 800 ft AGL from Temp-Dew spread
CeilingNone
Temp13°C (ISA -1)
Dew Point11°C (88% RH)
QNH1020 hPa
Density Alt502 ft
Elevation646 ft
Report Wrong Elevation
Raw Report
METAR KBHM 230753Z 00000KT 10SM CLR 13/11 A3013 RMK AO2 SLP197 T01280106=

Extra information for KBHM:More info

Metar Taf Metar & Taf Last 4 Metars F.Rules Stats Wind Profile Meteogram Temp Stats Airport Information Weather charts Add Link Nearby VenuesMetar ALERT Operation Metar Decoded Social comments

AIRNAV info for KBHM